Impacts METAR Board INFO
IDs:

KPHL - Philadelphia Intl, PA, US

Updated at: 2350 UTC 24 Feb 2018
Potential Impact None Slight Moderate High
Time24/11Z 24/12Z 24/13Z 24/14Z 24/15Z 24/16Z 24/17Z 24/18Z 24/19Z 24/20Z 24/21Z 24/22Z 24/23Z
VIS3 2 3 4 4 5 5 5 3 3 5 8 8
CIG3 2 5 5 7 7 33 34 6 41 42 46 46
CoverOVCOVCBKNOVCOVCOVCOVCOVCOVCOVCOVCOVCOVC
FltCatLIFRLIFRIFRIFRIFRIFRMVFRMVFRIFRMVFRMVFRVFRVFR
WXBRBRBRBRBRBRBRBR-RA BRBR-RA BR----
WDir320180180018022022009010004020
WSpd3 3 3 0 3 5 4 0 3 6 0 6 4
WGst-- -- -- -- -- -- -- -- -- -- -- -- --
Raw hourly METARs
KPHL 241054Z 32003KT 3SM BR OVC003 07/06 A3020 RMK AO2 SLP226 VIS S 1 T00670061 $
KPHL 241204Z 18003KT 2SM R09R/5500VP6000FT BR BKN002 OVC090 07/06 A3019 RMK AO2 T00670061 $
KPHL 241258Z 18003KT 3SM BR BKN005 BKN095 BKN200 07/06 A3020 RMK AO2 BKN005 V SCT T00720061 $
KPHL 241402Z 00000KT 4SM BR OVC005 08/07 A3020 RMK AO2 CIG 004V007 T00780067 $
KPHL 241454Z 18003KT 4SM BR OVC007 08/07 A3019 RMK AO2 SLP222 CIG 006V008 T00780067 56003 $
KPHL 241602Z 22005KT 5SM BR OVC007 09/07 A3021 RMK AO2 CIG 006V009 T00890072 $
KPHL 241654Z 22004KT 5SM BR SCT009 OVC033 09/07 A3020 RMK AO2 SLP227 T00890072 $
KPHL 241754Z 00000KT 5SM BR FEW009 SCT017 OVC034 09/07 A3016 RMK AO2 RAB28E54 SLP211 P0000 60000 T00890072 10089 20067 58011 $
KPHL 241904Z 09003KT 3SM -RA BR BKN006 BKN012 OVC045 09/08 A3015 RMK AO2 P0001 T00890083 $
KPHL 241954Z 10006KT 3SM BR FEW007 FEW012 OVC041 09/08 A3013 RMK AO2 RAE14 SLP203 P0001 T00890078 $
KPHL 242054Z 00000KT 5SM -RA BR FEW012 OVC042 10/08 A3017 RMK AO2 RAB52 SLP216 P0000 60005 T01000078 53005 $
KPHL 242154Z 04006KT 8SM SCT017 OVC046 10/08 A3017 RMK AO2 RAE12 SLP217 P0000 T01000078 $
KPHL 242254Z 02004KT 8SM OVC046 09/07 A3018 RMK AO2 SLP220 T00940067 $